sensor_id;sensor_type;location;lat;lon;timestamp;pressure;altitude;pressure_sealevel;temperature;humidity
75136;BME280;63707;52.212;9.540;2023-02-15T00:02:19;101427.09;;;3.53;100.00
75136;BME280;63707;52.212;9.540;2023-02-15T00:05:12;101417.72;;;3.68;100.00
75136;BME280;63707;52.212;9.540;2023-02-15T00:07:37;101416.16;;;3.66;100.00
75136;BME280;63707;52.212;9.540;2023-02-15T00:10:04;101412.06;;;3.71;100.00
75136;BME280;63707;52.212;9.540;2023-02-15T00:12:31;101409.63;;;3.68;100.00
75136;BME280;63707;52.212;9.540;2023-02-15T00:14:57;101408.41;;;3.72;100.00
75136;BME280;63707;52.212;9.540;2023-02-15T00:17:22;101408.44;;;3.61;100.00
75136;BME280;63707;52.212;9.540;2023-02-15T00:19:47;101409.56;;;3.59;100.00
75136;BME280;63707;52.212;9.540;2023-02-15T00:22:13;101414.28;;;3.45;100.00
75136;BME280;63707;52.212;9.540;2023-02-15T00:24:38;101409.66;;;3.36;100.00
75136;BME280;63707;52.212;9.540;2023-02-15T00:27:04;101409.78;;;3.24;100.00
75136;BME280;63707;52.212;9.540;2023-02-15T00:29:31;101408.66;;;3.26;100.00
75136;BME280;63707;52.212;9.540;2023-02-15T00:31:57;101418.63;;;3.14;100.00
75136;BME280;63707;52.212;9.540;2023-02-15T00:34:24;101423.28;;;3.01;100.00
75136;BME280;63707;52.212;9.540;2023-02-15T00:36:50;101414.34;;;3.01;100.00
75136;BME280;63707;52.212;9.540;2023-02-15T00:39:16;101406.75;;;2.83;100.00
75136;BME280;63707;52.212;9.540;2023-02-15T00:41:42;101408.38;;;2.75;100.00
75136;BME280;63707;52.212;9.540;2023-02-15T00:44:09;101404.81;;;2.74;100.00
75136;BME280;63707;52.212;9.540;2023-02-15T00:46:36;101397.63;;;2.86;100.00
75136;BME280;63707;52.212;9.540;2023-02-15T00:49:02;101399.06;;;2.79;100.00
75136;BME280;63707;52.212;9.540;2023-02-15T00:51:28;101412.03;;;2.74;100.00
75136;BME280;63707;52.212;9.540;2023-02-15T00:53:53;101408.50;;;2.73;100.00
75136;BME280;63707;52.212;9.540;2023-02-15T00:56:21;101411.06;;;2.52;100.00
75136;BME280;63707;52.212;9.540;2023-02-15T00:58:46;101406.16;;;2.46;100.00
75136;BME280;63707;52.212;9.540;2023-02-15T01:01:15;101396.75;;;2.63;100.00
75136;BME280;63707;52.212;9.540;2023-02-15T01:03:42;101398.06;;;2.35;100.00
75136;BME280;63707;52.212;9.540;2023-02-15T01:06:08;101399.09;;;2.45;100.00
75136;BME280;63707;52.212;9.540;2023-02-15T01:08:34;101397.22;;;2.35;100.00
75136;BME280;63707;52.212;9.540;2023-02-15T01:11:03;101393.66;;;2.23;100.00
75136;BME280;63707;52.212;9.540;2023-02-15T01:13:28;101400.84;;;2.11;100.00
75136;BME280;63707;52.212;9.540;2023-02-15T01:15:54;101400.75;;;2.24;100.00
75136;BME280;63707;52.212;9.540;2023-02-15T01:18:20;101399.72;;;2.03;100.00
75136;BME280;63707;52.212;9.540;2023-02-15T01:20:48;101390.00;;;1.78;100.00
75136;BME280;63707;52.212;9.540;2023-02-15T01:23:13;101402.31;;;1.69;100.00
75136;BME280;63707;52.212;9.540;2023-02-15T01:25:39;101390.13;;;1.76;100.00
75136;BME280;63707;52.212;9.540;2023-02-15T01:28:04;101388.13;;;2.02;100.00
75136;BME280;63707;52.212;9.540;2023-02-15T01:30:30;101383.50;;;2.04;100.00
75136;BME280;63707;52.212;9.540;2023-02-15T01:32:57;101384.38;;;1.81;100.00
75136;BME280;63707;52.212;9.540;2023-02-15T01:35:22;101382.16;;;1.75;100.00
75136;BME280;63707;52.212;9.540;2023-02-15T01:37:49;101374.44;;;1.94;100.00
75136;BME280;63707;52.212;9.540;2023-02-15T01:40:16;101378.47;;;2.00;100.00
75136;BME280;63707;52.212;9.540;2023-02-15T01:42:43;101377.00;;;2.07;100.00
75136;BME280;63707;52.212;9.540;2023-02-15T01:45:18;101383.59;;;2.03;100.00
75136;BME280;63707;52.212;9.540;2023-02-15T01:47:47;101371.44;;;1.86;100.00
75136;BME280;63707;52.212;9.540;2023-02-15T01:50:16;101382.28;;;1.73;100.00
75136;BME280;63707;52.212;9.540;2023-02-15T01:52:48;101375.22;;;1.83;100.00
75136;BME280;63707;52.212;9.540;2023-02-15T01:55:15;101369.84;;;1.83;100.00
75136;BME280;63707;52.212;9.540;2023-02-15T01:57:42;101374.41;;;1.48;100.00
75136;BME280;63707;52.212;9.540;2023-02-15T02:00:09;101369.41;;;1.31;100.00
75136;BME280;63707;52.212;9.540;2023-02-15T02:02:35;101370.59;;;1.03;100.00
75136;BME280;63707;52.212;9.540;2023-02-15T02:05:03;101371.88;;;0.73;100.00
75136;BME280;63707;52.212;9.540;2023-02-15T02:07:33;101362.41;;;0.80;100.00
75136;BME280;63707;52.212;9.540;2023-02-15T02:10:01;101364.38;;;1.26;100.00
75136;BME280;63707;52.212;9.540;2023-02-15T02:12:28;101358.09;;;1.38;100.00
75136;BME280;63707;52.212;9.540;2023-02-15T02:14:55;101354.84;;;1.22;100.00
75136;BME280;63707;52.212;9.540;2023-02-15T02:17:30;101355.94;;;0.96;100.00
75136;BME280;63707;52.212;9.540;2023-02-15T02:20:17;101354.25;;;0.82;100.00
75136;BME280;63707;52.212;9.540;2023-02-15T02:23:11;101349.38;;;0.63;100.00
75136;BME280;63707;52.212;9.540;2023-02-15T02:26:16;101360.88;;;0.40;100.00
75136;BME280;63707;52.212;9.540;2023-02-15T02:29:11;101354.00;;;0.48;100.00
75136;BME280;63707;52.212;9.540;2023-02-15T02:32:11;101340.34;;;0.64;100.00
75136;BME280;63707;52.212;9.540;2023-02-15T02:34:46;101338.94;;;0.71;100.00
75136;BME280;63707;52.212;9.540;2023-02-15T02:37:22;101337.44;;;0.67;100.00
75136;BME280;63707;52.212;9.540;2023-02-15T02:39:53;101332.22;;;0.53;100.00
75136;BME280;63707;52.212;9.540;2023-02-15T02:42:25;101333.63;;;0.33;100.00
75136;BME280;63707;52.212;9.540;2023-02-15T02:44:56;101330.50;;;0.88;100.00
75136;BME280;63707;52.212;9.540;2023-02-15T02:47:29;101335.13;;;0.37;100.00
75136;BME280;63707;52.212;9.540;2023-02-15T02:50:00;101336.97;;;0.24;100.00
75136;BME280;63707;52.212;9.540;2023-02-15T02:52:41;101328.72;;;0.27;100.00
75136;BME280;63707;52.212;9.540;2023-02-15T02:55:11;101318.28;;;0.48;100.00
75136;BME280;63707;52.212;9.540;2023-02-15T02:57:44;101317.06;;;0.65;100.00
75136;BME280;63707;52.212;9.540;2023-02-15T03:00:12;101316.53;;;0.59;100.00
75136;BME280;63707;52.212;9.540;2023-02-15T03:02:42;101311.69;;;1.60;100.00
75136;BME280;63707;52.212;9.540;2023-02-15T03:05:15;101301.56;;;1.05;100.00
75136;BME280;63707;52.212;9.540;2023-02-15T03:07:42;101306.78;;;0.95;100.00
75136;BME280;63707;52.212;9.540;2023-02-15T03:10:12;101311.31;;;0.82;100.00
75136;BME280;63707;52.212;9.540;2023-02-15T03:12:39;101303.47;;;0.55;100.00
75136;BME280;63707;52.212;9.540;2023-02-15T03:15:10;101302.09;;;0.49;100.00
75136;BME280;63707;52.212;9.540;2023-02-15T03:17:41;101307.03;;;0.43;100.00
75136;BME280;63707;52.212;9.540;2023-02-15T03:20:13;101298.97;;;1.62;100.00
75136;BME280;63707;52.212;9.540;2023-02-15T03:22:44;101295.38;;;0.91;100.00
75136;BME280;63707;52.212;9.540;2023-02-15T03:25:15;101298.97;;;0.55;100.00
75136;BME280;63707;52.212;9.540;2023-02-15T03:27:45;101298.13;;;0.42;100.00
75136;BME280;63707;52.212;9.540;2023-02-15T03:30:13;101296.19;;;0.81;100.00
75136;BME280;63707;52.212;9.540;2023-02-15T03:32:41;101295.66;;;0.76;100.00
75136;BME280;63707;52.212;9.540;2023-02-15T03:35:08;101290.09;;;1.73;100.00
75136;BME280;63707;52.212;9.540;2023-02-15T03:37:39;101280.50;;;2.37;100.00
75136;BME280;63707;52.212;9.540;2023-02-15T03:40:08;101279.00;;;2.22;100.00
75136;BME280;63707;52.212;9.540;2023-02-15T03:42:59;101282.03;;;1.73;100.00
75136;BME280;63707;52.212;9.540;2023-02-15T03:45:30;101289.59;;;1.33;100.00
75136;BME280;63707;52.212;9.540;2023-02-15T03:47:58;101294.59;;;1.72;100.00
75136;BME280;63707;52.212;9.540;2023-02-15T03:50:27;101289.16;;;1.96;100.00
75136;BME280;63707;52.212;9.540;2023-02-15T03:53:17;101288.75;;;1.78;100.00
75136;BME280;63707;52.212;9.540;2023-02-15T03:55:46;101281.03;;;1.74;100.00
75136;BME280;63707;52.212;9.540;2023-02-15T03:58:11;101295.19;;;1.65;100.00
75136;BME280;63707;52.212;9.540;2023-02-15T04:00:58;101294.56;;;1.50;100.00
75136;BME280;63707;52.212;9.540;2023-02-15T04:03:45;101296.63;;;1.46;100.00
75136;BME280;63707;52.212;9.540;2023-02-15T04:06:13;101289.00;;;1.40;100.00
75136;BME280;63707;52.212;9.540;2023-02-15T04:08:40;101294.06;;;1.21;100.00
75136;BME280;63707;52.212;9.540;2023-02-15T04:11:44;101291.59;;;1.07;100.00
75136;BME280;63707;52.212;9.540;2023-02-15T04:14:10;101290.22;;;1.01;100.00
75136;BME280;63707;52.212;9.540;2023-02-15T04:16:54;101284.25;;;0.85;100.00
75136;BME280;63707;52.212;9.540;2023-02-15T04:19:20;101284.59;;;0.56;100.00
75136;BME280;63707;52.212;9.540;2023-02-15T04:22:04;101285.09;;;0.25;100.00
75136;BME280;63707;52.212;9.540;2023-02-15T04:24:49;101282.09;;;0.17;100.00
75136;BME280;63707;52.212;9.540;2023-02-15T04:27:33;101291.03;;;0.05;100.00
75136;BME280;63707;52.212;9.540;2023-02-15T04:29:59;101288.22;;;0.06;100.00
75136;BME280;63707;52.212;9.540;2023-02-15T04:32:24;101292.31;;;-0.26;100.00
75136;BME280;63707;52.212;9.540;2023-02-15T04:34:50;101285.34;;;-0.42;100.00
75136;BME280;63707;52.212;9.540;2023-02-15T04:37:15;101280.69;;;-0.52;100.00
75136;BME280;63707;52.212;9.540;2023-02-15T04:39:41;101283.34;;;-0.65;100.00
75136;BME280;63707;52.212;9.540;2023-02-15T04:42:08;101285.28;;;-0.67;100.00
75136;BME280;63707;52.212;9.540;2023-02-15T04:44:33;101277.25;;;-0.67;100.00
75136;BME280;63707;52.212;9.540;2023-02-15T04:46:58;101275.00;;;-0.73;100.00
75136;BME280;63707;52.212;9.540;2023-02-15T04:49:24;101265.34;;;-0.76;100.00
75136;BME280;63707;52.212;9.540;2023-02-15T04:51:49;101266.31;;;-0.77;100.00
75136;BME280;63707;52.212;9.540;2023-02-15T04:54:15;101269.41;;;-0.83;100.00
75136;BME280;63707;52.212;9.540;2023-02-15T04:56:42;101270.16;;;-0.93;100.00
75136;BME280;63707;52.212;9.540;2023-02-15T04:59:11;101263.94;;;-0.94;100.00
75136;BME280;63707;52.212;9.540;2023-02-15T05:01:37;101259.69;;;-0.71;100.00
75136;BME280;63707;52.212;9.540;2023-02-15T05:04:02;101262.16;;;-0.68;100.00
75136;BME280;63707;52.212;9.540;2023-02-15T05:06:28;101261.19;;;-0.80;100.00
75136;BME280;63707;52.212;9.540;2023-02-15T05:08:54;101257.63;;;-0.93;100.00
75136;BME280;63707;52.212;9.540;2023-02-15T05:11:19;101268.78;;;-1.13;100.00
75136;BME280;63707;52.212;9.540;2023-02-15T05:13:45;101264.69;;;-1.19;100.00
75136;BME280;63707;52.212;9.540;2023-02-15T05:16:12;101267.53;;;-1.35;100.00
75136;BME280;63707;52.212;9.540;2023-02-15T05:18:37;101264.81;;;-1.20;100.00
75136;BME280;63707;52.212;9.540;2023-02-15T05:21:03;101269.34;;;-1.35;100.00
75136;BME280;63707;52.212;9.540;2023-02-15T05:23:29;101264.22;;;-1.38;100.00
75136;BME280;63707;52.212;9.540;2023-02-15T05:25:54;101267.09;;;-1.41;100.00
75136;BME280;63707;52.212;9.540;2023-02-15T05:28:38;101265.38;;;-1.56;100.00
75136;BME280;63707;52.212;9.540;2023-02-15T05:31:06;101263.31;;;-1.66;100.00
75136;BME280;63707;52.212;9.540;2023-02-15T05:33:33;101266.59;;;-1.48;100.00
75136;BME280;63707;52.212;9.540;2023-02-15T05:35:59;101262.34;;;-1.65;100.00
75136;BME280;63707;52.212;9.540;2023-02-15T05:38:25;101264.66;;;-1.73;100.00
75136;BME280;63707;52.212;9.540;2023-02-15T05:40:50;101260.47;;;-1.77;100.00
75136;BME280;63707;52.212;9.540;2023-02-15T05:43:16;101251.69;;;-1.93;100.00
75136;BME280;63707;52.212;9.540;2023-02-15T05:45:44;101258.28;;;-1.84;100.00
75136;BME280;63707;52.212;9.540;2023-02-15T05:48:10;101255.09;;;-1.63;100.00
75136;BME280;63707;52.212;9.540;2023-02-15T05:50:37;101249.69;;;-1.48;100.00
75136;BME280;63707;52.212;9.540;2023-02-15T05:53:02;101254.88;;;-1.60;100.00
75136;BME280;63707;52.212;9.540;2023-02-15T05:55:28;101247.41;;;-1.81;100.00
75136;BME280;63707;52.212;9.540;2023-02-15T05:57:53;101250.75;;;-1.92;100.00
75136;BME280;63707;52.212;9.540;2023-02-15T06:00:19;101247.31;;;-1.94;100.00
75136;BME280;63707;52.212;9.540;2023-02-15T06:02:45;101245.59;;;-1.95;100.00
75136;BME280;63707;52.212;9.540;2023-02-15T06:05:10;101245.22;;;-2.03;100.00
75136;BME280;63707;52.212;9.540;2023-02-15T06:07:37;101254.28;;;-2.06;100.00
75136;BME280;63707;52.212;9.540;2023-02-15T06:10:04;101255.63;;;-2.13;100.00
75136;BME280;63707;52.212;9.540;2023-02-15T06:12:30;101262.22;;;-2.18;100.00
75136;BME280;63707;52.212;9.540;2023-02-15T06:14:55;101262.50;;;-2.09;100.00
75136;BME280;63707;52.212;9.540;2023-02-15T06:17:24;101262.41;;;-2.07;100.00
75136;BME280;63707;52.212;9.540;2023-02-15T06:19:49;101261.06;;;-2.14;100.00
75136;BME280;63707;52.212;9.540;2023-02-15T06:22:15;101256.31;;;-2.24;100.00
75136;BME280;63707;52.212;9.540;2023-02-15T06:24:42;101258.41;;;-2.14;100.00
75136;BME280;63707;52.212;9.540;2023-02-15T06:27:08;101250.84;;;-1.94;100.00
75136;BME280;63707;52.212;9.540;2023-02-15T06:29:33;101250.47;;;-2.02;100.00
75136;BME280;63707;52.212;9.540;2023-02-15T06:31:59;101252.84;;;-2.11;100.00
75136;BME280;63707;52.212;9.540;2023-02-15T06:34:24;101247.34;;;-2.23;100.00
75136;BME280;63707;52.212;9.540;2023-02-15T06:36:49;101255.25;;;-2.21;100.00
75136;BME280;63707;52.212;9.540;2023-02-15T06:39:15;101255.72;;;-2.14;100.00
75136;BME280;63707;52.212;9.540;2023-02-15T06:41:42;101250.66;;;-2.19;100.00
75136;BME280;63707;52.212;9.540;2023-02-15T06:44:07;101245.53;;;-2.22;100.00
75136;BME280;63707;52.212;9.540;2023-02-15T06:46:33;101244.09;;;-2.28;100.00
75136;BME280;63707;52.212;9.540;2023-02-15T06:48:58;101236.75;;;-2.24;100.00
75136;BME280;63707;52.212;9.540;2023-02-15T06:51:24;101234.63;;;-2.05;100.00
75136;BME280;63707;52.212;9.540;2023-02-15T06:53:49;101238.66;;;-2.12;100.00
75136;BME280;63707;52.212;9.540;2023-02-15T06:56:15;101241.81;;;-2.19;100.00
75136;BME280;63707;52.212;9.540;2023-02-15T06:58:42;101241.63;;;-2.16;100.00
75136;BME280;63707;52.212;9.540;2023-02-15T07:01:08;101242.47;;;-2.16;100.00
75136;BME280;63707;52.212;9.540;2023-02-15T07:03:34;101242.56;;;-2.17;100.00
75136;BME280;63707;52.212;9.540;2023-02-15T07:06:02;101242.47;;;-2.16;100.00
75136;BME280;63707;52.212;9.540;2023-02-15T07:08:28;101238.47;;;-2.09;100.00
75136;BME280;63707;52.212;9.540;2023-02-15T07:10:55;101238.47;;;-2.09;100.00
75136;BME280;63707;52.212;9.540;2023-02-15T07:13:42;101238.72;;;-1.99;100.00
75136;BME280;63707;52.212;9.540;2023-02-15T07:16:08;101248.06;;;-1.92;100.00
75136;BME280;63707;52.212;9.540;2023-02-15T07:18:34;101234.53;;;-1.89;100.00
75136;BME280;63707;52.212;9.540;2023-02-15T07:21:00;101236.91;;;-1.84;100.00
75136;BME280;63707;52.212;9.540;2023-02-15T07:23:26;101234.16;;;-1.83;100.00
75136;BME280;63707;52.212;9.540;2023-02-15T07:25:56;101237.97;;;-1.87;100.00
75136;BME280;63707;52.212;9.540;2023-02-15T07:28:22;101245.00;;;-1.72;100.00
75136;BME280;63707;52.212;9.540;2023-02-15T07:30:49;101245.84;;;-1.71;100.00
75136;BME280;63707;52.212;9.540;2023-02-15T07:33:14;101242.84;;;-1.52;100.00
75136;BME280;63707;52.212;9.540;2023-02-15T07:35:50;101253.72;;;-1.41;100.00
75136;BME280;63707;52.212;9.540;2023-02-15T07:38:16;101247.59;;;-1.43;100.00
75136;BME280;63707;52.212;9.540;2023-02-15T07:40:42;101243.28;;;-1.32;100.00
75136;BME280;63707;52.212;9.540;2023-02-15T07:43:11;101241.44;;;-1.31;100.00
75136;BME280;63707;52.212;9.540;2023-02-15T07:45:36;101243.38;;;-1.33;100.00
75136;BME280;63707;52.212;9.540;2023-02-15T07:48:04;101236.09;;;-1.31;100.00
75136;BME280;63707;52.212;9.540;2023-02-15T07:50:30;101236.88;;;-1.29;100.00
75136;BME280;63707;52.212;9.540;2023-02-15T07:52:55;101234.53;;;-1.21;100.00
75136;BME280;63707;52.212;9.540;2023-02-15T07:55:21;101226.31;;;-1.18;100.00
75136;BME280;63707;52.212;9.540;2023-02-15T07:57:48;101221.06;;;-1.19;100.00
75136;BME280;63707;52.212;9.540;2023-02-15T08:00:15;101213.91;;;-1.19;100.00
75136;BME280;63707;52.212;9.540;2023-02-15T08:02:42;101209.41;;;-1.18;100.00
75136;BME280;63707;52.212;9.540;2023-02-15T08:05:08;101213.03;;;-1.19;100.00
75136;BME280;63707;52.212;9.540;2023-02-15T08:07:34;101210.81;;;-1.13;100.00
75136;BME280;63707;52.212;9.540;2023-02-15T08:09:59;101211.69;;;-1.00;100.00
75136;BME280;63707;52.212;9.540;2023-02-15T08:12:25;101208.47;;;-1.05;100.00
75136;BME280;63707;52.212;9.540;2023-02-15T08:14:51;101210.66;;;-0.84;100.00
75136;BME280;63707;52.212;9.540;2023-02-15T08:17:16;101209.81;;;-0.85;100.00
75136;BME280;63707;52.212;9.540;2023-02-15T08:19:42;101202.84;;;-0.87;100.00
75136;BME280;63707;52.212;9.540;2023-02-15T08:22:12;101201.56;;;-0.82;100.00
75136;BME280;63707;52.212;9.540;2023-02-15T08:24:38;101200.19;;;-0.75;100.00
75136;BME280;63707;52.212;9.540;2023-02-15T08:27:05;101201.13;;;-0.63;100.00
75136;BME280;63707;52.212;9.540;2023-02-15T08:29:31;101204.47;;;-0.59;100.00
75136;BME280;63707;52.212;9.540;2023-02-15T08:31:59;101202.66;;;-0.46;100.00
75136;BME280;63707;52.212;9.540;2023-02-15T08:34:28;101207.25;;;-0.61;100.00
75136;BME280;63707;52.212;9.540;2023-02-15T08:36:54;101204.47;;;-0.47;100.00
75136;BME280;63707;52.212;9.540;2023-02-15T08:39:21;101209.28;;;-0.52;100.00
75136;BME280;63707;52.212;9.540;2023-02-15T08:41:47;101196.22;;;-0.56;100.00
75136;BME280;63707;52.212;9.540;2023-02-15T08:44:15;101193.75;;;-0.72;100.00
75136;BME280;63707;52.212;9.540;2023-02-15T08:46:42;101192.47;;;-0.54;100.00
75136;BME280;63707;52.212;9.540;2023-02-15T08:49:08;101182.50;;;-0.52;100.00
75136;BME280;63707;52.212;9.540;2023-02-15T08:51:36;101181.97;;;-0.57;100.00
75136;BME280;63707;52.212;9.540;2023-02-15T08:54:04;101186.88;;;-0.25;100.00
75136;BME280;63707;52.212;9.540;2023-02-15T08:56:35;101185.78;;;0.03;100.00
75136;BME280;63707;52.212;9.540;2023-02-15T08:59:02;101190.94;;;0.29;100.00
75136;BME280;63707;52.212;9.540;2023-02-15T09:01:29;101186.19;;;0.09;100.00
75136;BME280;63707;52.212;9.540;2023-02-15T09:03:57;101186.19;;;0.81;100.00
75136;BME280;63707;52.212;9.540;2023-02-15T09:06:23;101173.41;;;2.20;100.00
75136;BME280;63707;52.212;9.540;2023-02-15T09:08:49;101185.56;;;1.92;100.00
75136;BME280;63707;52.212;9.540;2023-02-15T09:11:17;101170.53;;;1.67;100.00
75136;BME280;63707;52.212;9.540;2023-02-15T09:13:49;101173.84;;;0.67;100.00
75136;BME280;63707;52.212;9.540;2023-02-15T09:16:15;101170.59;;;1.32;100.00
75136;BME280;63707;52.212;9.540;2023-02-15T09:18:45;101165.47;;;0.48;100.00
75136;BME280;63707;52.212;9.540;2023-02-15T09:21:12;101164.53;;;-0.01;100.00
75136;BME280;63707;52.212;9.540;2023-02-15T09:23:41;101167.66;;;-0.07;100.00
75136;BME280;63707;52.212;9.540;2023-02-15T09:26:08;101169.13;;;0.10;100.00
75136;BME280;63707;52.212;9.540;2023-02-15T09:28:34;101174.72;;;-0.06;100.00
75136;BME280;63707;52.212;9.540;2023-02-15T09:31:09;101171.53;;;0.02;100.00
75136;BME280;63707;52.212;9.540;2023-02-15T09:33:36;101176.56;;;-0.06;100.00
75136;BME280;63707;52.212;9.540;2023-02-15T09:36:02;101172.44;;;-0.36;100.00
75136;BME280;63707;52.212;9.540;2023-02-15T09:38:27;101181.22;;;-0.34;100.00
75136;BME280;63707;52.212;9.540;2023-02-15T09:41:03;101169.75;;;-0.23;100.00
75136;BME280;63707;52.212;9.540;2023-02-15T09:43:39;101180.53;;;-0.12;100.00
75136;BME280;63707;52.212;9.540;2023-02-15T09:46:19;101181.28;;;-0.10;100.00
75136;BME280;63707;52.212;9.540;2023-02-15T09:48:48;101172.78;;;0.09;100.00
75136;BME280;63707;52.212;9.540;2023-02-15T09:54:33;101174.91;;;0.17;100.00
75136;BME280;63707;52.212;9.540;2023-02-15T09:57:09;101176.63;;;0.66;100.00
75136;BME280;63707;52.212;9.540;2023-02-15T09:59:43;101175.91;;;0.63;100.00
75136;BME280;63707;52.212;9.540;2023-02-15T10:02:23;101176.69;;;0.53;100.00
75136;BME280;63707;52.212;9.540;2023-02-15T10:05:01;101168.81;;;0.62;100.00
75136;BME280;63707;52.212;9.540;2023-02-15T10:07:53;101181.03;;;0.67;100.00
75136;BME280;63707;52.212;9.540;2023-02-15T10:10:27;101174.47;;;0.71;100.00
75136;BME280;63707;52.212;9.540;2023-02-15T10:13:04;101171.84;;;0.58;100.00
75136;BME280;63707;52.212;9.540;2023-02-15T10:15:52;101170.53;;;0.99;100.00
75136;BME280;63707;52.212;9.540;2023-02-15T10:18:36;101166.09;;;1.33;100.00
75136;BME280;63707;52.212;9.540;2023-02-15T10:21:08;101165.28;;;1.43;100.00
75136;BME280;63707;52.212;9.540;2023-02-15T10:23:48;101164.06;;;1.58;100.00
75136;BME280;63707;52.212;9.540;2023-02-15T10:26:18;101159.34;;;1.16;100.00
75136;BME280;63707;52.212;9.540;2023-02-15T10:28:48;101164.50;;;1.19;100.00
75136;BME280;63707;52.212;9.540;2023-02-15T10:31:23;101160.56;;;1.01;100.00
75136;BME280;63707;52.212;9.540;2023-02-15T10:33:57;101158.28;;;1.30;100.00
75136;BME280;63707;52.212;9.540;2023-02-15T10:36:36;101150.97;;;1.32;100.00
75136;BME280;63707;52.212;9.540;2023-02-15T10:39:10;101142.97;;;2.95;100.00
75136;BME280;63707;52.212;9.540;2023-02-15T10:41:46;101147.56;;;2.72;100.00
75136;BME280;63707;52.212;9.540;2023-02-15T10:44:28;101146.66;;;2.82;100.00
75136;BME280;63707;52.212;9.540;2023-02-15T10:47:22;101142.78;;;6.00;100.00
75136;BME280;63707;52.212;9.540;2023-02-15T10:50:06;101133.69;;;6.46;100.00
75136;BME280;63707;52.212;9.540;2023-02-15T10:52:44;101126.16;;;8.39;100.00
75136;BME280;63707;52.212;9.540;2023-02-15T10:55:20;101127.59;;;8.60;100.00
75136;BME280;63707;52.212;9.540;2023-02-15T10:58:01;101125.31;;;10.16;100.00
75136;BME280;63707;52.212;9.540;2023-02-15T11:00:34;101123.38;;;9.06;100.00
75136;BME280;63707;52.212;9.540;2023-02-15T11:03:21;101110.66;;;11.02;100.00
75136;BME280;63707;52.212;9.540;2023-02-15T11:05:57;101104.84;;;11.05;100.00
75136;BME280;63707;52.212;9.540;2023-02-15T11:08:24;101108.41;;;11.06;100.00
75136;BME280;63707;52.212;9.540;2023-02-15T11:10:52;101112.81;;;8.87;100.00
75136;BME280;63707;52.212;9.540;2023-02-15T11:13:22;101101.03;;;11.29;100.00
75136;BME280;63707;52.212;9.540;2023-02-15T11:15:52;101096.94;;;12.07;100.00
75136;BME280;63707;52.212;9.540;2023-02-15T11:18:23;101100.84;;;10.47;100.00
75136;BME280;63707;52.212;9.540;2023-02-15T11:20:54;101099.28;;;11.36;100.00
75136;BME280;63707;52.212;9.540;2023-02-15T11:23:21;101097.38;;;10.99;100.00
75136;BME280;63707;52.212;9.540;2023-02-15T11:25:54;101098.19;;;10.62;100.00
75136;BME280;63707;52.212;9.540;2023-02-15T11:28:25;101098.66;;;11.93;100.00
75136;BME280;63707;52.212;9.540;2023-02-15T11:30:55;101089.44;;;11.94;100.00
75136;BME280;63707;52.212;9.540;2023-02-15T11:33:25;101095.25;;;10.40;100.00
75136;BME280;63707;52.212;9.540;2023-02-15T11:35:57;101094.78;;;9.98;100.00
75136;BME280;63707;52.212;9.540;2023-02-15T11:38:27;101090.88;;;9.37;100.00
75136;BME280;63707;52.212;9.540;2023-02-15T11:40:55;101087.19;;;9.77;100.00
75136;BME280;63707;52.212;9.540;2023-02-15T11:43:26;101072.53;;;10.17;100.00
75136;BME280;63707;52.212;9.540;2023-02-15T11:45:54;101062.88;;;10.68;100.00
75136;BME280;63707;52.212;9.540;2023-02-15T11:48:20;101067.91;;;10.26;100.00
75136;BME280;63707;52.212;9.540;2023-02-15T11:50:45;101072.34;;;10.27;100.00
75136;BME280;63707;52.212;9.540;2023-02-15T11:53:15;101074.56;;;6.59;100.00
75136;BME280;63707;52.212;9.540;2023-02-15T11:55:42;101072.41;;;9.00;100.00
75136;BME280;63707;52.212;9.540;2023-02-15T11:58:16;101071.00;;;9.84;100.00
75136;BME280;63707;52.212;9.540;2023-02-15T12:00:46;101075.19;;;9.55;100.00
75136;BME280;63707;52.212;9.540;2023-02-15T12:03:16;101076.03;;;7.75;100.00
75136;BME280;63707;52.212;9.540;2023-02-15T12:05:45;101073.19;;;9.96;100.00
75136;BME280;63707;52.212;9.540;2023-02-15T12:08:19;101073.97;;;9.66;100.00
75136;BME280;63707;52.212;9.540;2023-02-15T12:10:55;101055.31;;;12.62;100.00
75136;BME280;63707;52.212;9.540;2023-02-15T12:13:22;101052.84;;;9.21;100.00
75136;BME280;63707;52.212;9.540;2023-02-15T12:15:51;101061.56;;;10.79;100.00
75136;BME280;63707;52.212;9.540;2023-02-15T12:18:27;101064.91;;;8.94;100.00
75136;BME280;63707;52.212;9.540;2023-02-15T12:20:58;101060.16;;;7.97;100.00
75136;BME280;63707;52.212;9.540;2023-02-15T12:23:28;101065.22;;;8.42;100.00
75136;BME280;63707;52.212;9.540;2023-02-15T12:25:55;101059.00;;;8.58;100.00
75136;BME280;63707;52.212;9.540;2023-02-15T12:28:25;101058.09;;;7.14;100.00
75136;BME280;63707;52.212;9.540;2023-02-15T12:30:53;101068.00;;;7.06;100.00
75136;BME280;63707;52.212;9.540;2023-02-15T12:33:26;101058.94;;;6.53;100.00
75136;BME280;63707;52.212;9.540;2023-02-15T12:35:57;101064.69;;;7.46;100.00
75136;BME280;63707;52.212;9.540;2023-02-15T12:38:26;101053.09;;;9.89;100.00
75136;BME280;63707;52.212;9.540;2023-02-15T12:41:01;101033.59;;;12.18;100.00
75136;BME280;63707;52.212;9.540;2023-02-15T12:43:31;101028.69;;;13.48;100.00
75136;BME280;63707;52.212;9.540;2023-02-15T12:46:14;101031.13;;;11.28;100.00
75136;BME280;63707;52.212;9.540;2023-02-15T12:48:44;101042.03;;;10.53;100.00
75136;BME280;63707;52.212;9.540;2023-02-15T12:51:15;101041.38;;;10.20;100.00
75136;BME280;63707;52.212;9.540;2023-02-15T12:53:42;101035.34;;;10.40;100.00
75136;BME280;63707;52.212;9.540;2023-02-15T12:56:09;101035.38;;;9.62;100.00
75136;BME280;63707;52.212;9.540;2023-02-15T12:58:35;101025.06;;;9.50;100.00
75136;BME280;63707;52.212;9.540;2023-02-15T13:01:12;101032.16;;;8.63;100.00
75136;BME280;63707;52.212;9.540;2023-02-15T13:03:58;101032.81;;;7.74;100.00